sensor_id;sensor_type;location;lat;lon;timestamp;P1;durP1;ratioP1;P2;durP2;ratioP2
47760;SDS011;33524;55.434;38.520;2024-03-02T00:00:07;60.88;;;31.23;;
47760;SDS011;33524;55.434;38.520;2024-03-02T00:02:41;64.40;;;33.28;;
47760;SDS011;33524;55.434;38.520;2024-03-02T00:05:14;52.03;;;29.55;;
47760;SDS011;33524;55.434;38.520;2024-03-02T00:07:44;49.47;;;29.05;;
47760;SDS011;33524;55.434;38.520;2024-03-02T00:10:20;53.75;;;29.15;;
47760;SDS011;33524;55.434;38.520;2024-03-02T00:12:53;56.17;;;29.92;;
47760;SDS011;33524;55.434;38.520;2024-03-02T00:15:42;58.53;;;33.03;;
47760;SDS011;33524;55.434;38.520;2024-03-02T00:18:16;48.30;;;27.00;;
47760;SDS011;33524;55.434;38.520;2024-03-02T00:23:16;48.95;;;26.42;;
47760;SDS011;33524;55.434;38.520;2024-03-02T00:25:52;58.45;;;31.55;;
47760;SDS011;33524;55.434;38.520;2024-03-02T00:28:35;46.22;;;25.98;;
47760;SDS011;33524;55.434;38.520;2024-03-02T00:31:07;54.28;;;30.70;;
47760;SDS011;33524;55.434;38.520;2024-03-02T00:36:12;42.72;;;23.17;;
47760;SDS011;33524;55.434;38.520;2024-03-02T00:38:49;47.80;;;26.55;;
47760;SDS011;33524;55.434;38.520;2024-03-02T00:41:22;37.50;;;20.75;;
47760;SDS011;33524;55.434;38.520;2024-03-02T00:44:02;33.60;;;17.08;;
47760;SDS011;33524;55.434;38.520;2024-03-02T00:46:40;34.58;;;17.08;;
47760;SDS011;33524;55.434;38.520;2024-03-02T00:49:23;34.67;;;19.83;;
47760;SDS011;33524;55.434;38.520;2024-03-02T00:51:52;36.95;;;20.27;;
47760;SDS011;33524;55.434;38.520;2024-03-02T00:54:23;36.97;;;18.85;;
47760;SDS011;33524;55.434;38.520;2024-03-02T00:56:53;36.35;;;21.10;;
47760;SDS011;33524;55.434;38.520;2024-03-02T00:59:23;38.28;;;18.42;;
47760;SDS011;33524;55.434;38.520;2024-03-02T01:01:51;29.80;;;15.10;;
47760;SDS011;33524;55.434;38.520;2024-03-02T01:04:20;41.00;;;22.67;;
47760;SDS011;33524;55.434;38.520;2024-03-02T01:06:48;51.20;;;24.52;;
47760;SDS011;33524;55.434;38.520;2024-03-02T01:09:16;23.20;;;13.55;;
47760;SDS011;33524;55.434;38.520;2024-03-02T01:11:45;30.60;;;16.27;;
47760;SDS011;33524;55.434;38.520;2024-03-02T01:14:14;23.95;;;12.68;;
47760;SDS011;33524;55.434;38.520;2024-03-02T01:16:42;26.45;;;14.02;;
47760;SDS011;33524;55.434;38.520;2024-03-02T01:19:10;23.62;;;14.07;;
47760;SDS011;33524;55.434;38.520;2024-03-02T01:21:39;29.02;;;16.67;;
47760;SDS011;33524;55.434;38.520;2024-03-02T01:24:07;26.17;;;16.12;;
47760;SDS011;33524;55.434;38.520;2024-03-02T01:26:35;41.83;;;23.10;;
47760;SDS011;33524;55.434;38.520;2024-03-02T01:29:03;50.85;;;26.12;;
47760;SDS011;33524;55.434;38.520;2024-03-02T01:31:31;21.08;;;11.73;;
47760;SDS011;33524;55.434;38.520;2024-03-02T01:33:59;36.88;;;20.33;;
47760;SDS011;33524;55.434;38.520;2024-03-02T01:36:28;52.95;;;26.42;;
47760;SDS011;33524;55.434;38.520;2024-03-02T01:38:56;37.05;;;21.45;;
47760;SDS011;33524;55.434;38.520;2024-03-02T01:41:24;45.10;;;25.92;;
47760;SDS011;33524;55.434;38.520;2024-03-02T01:43:53;41.28;;;22.83;;
47760;SDS011;33524;55.434;38.520;2024-03-02T01:46:21;46.90;;;27.42;;
47760;SDS011;33524;55.434;38.520;2024-03-02T01:48:49;40.28;;;23.98;;
47760;SDS011;33524;55.434;38.520;2024-03-02T01:51:17;34.83;;;19.83;;
47760;SDS011;33524;55.434;38.520;2024-03-02T01:53:45;43.87;;;20.92;;
47760;SDS011;33524;55.434;38.520;2024-03-02T01:56:13;23.98;;;15.15;;
47760;SDS011;33524;55.434;38.520;2024-03-02T01:58:42;44.92;;;24.27;;
47760;SDS011;33524;55.434;38.520;2024-03-02T02:01:12;30.85;;;18.08;;
47760;SDS011;33524;55.434;38.520;2024-03-02T02:03:40;46.83;;;26.42;;
47760;SDS011;33524;55.434;38.520;2024-03-02T02:06:08;46.70;;;24.63;;
47760;SDS011;33524;55.434;38.520;2024-03-02T02:08:37;55.80;;;30.48;;
47760;SDS011;33524;55.434;38.520;2024-03-02T02:11:06;47.80;;;27.62;;
47760;SDS011;33524;55.434;38.520;2024-03-02T02:13:34;41.83;;;24.02;;
47760;SDS011;33524;55.434;38.520;2024-03-02T02:16:06;43.70;;;25.27;;
47760;SDS011;33524;55.434;38.520;2024-03-02T02:18:35;54.30;;;30.70;;
47760;SDS011;33524;55.434;38.520;2024-03-02T02:21:04;55.25;;;31.12;;
47760;SDS011;33524;55.434;38.520;2024-03-02T02:23:32;56.55;;;32.42;;
47760;SDS011;33524;55.434;38.520;2024-03-02T02:26:00;55.63;;;33.78;;
47760;SDS011;33524;55.434;38.520;2024-03-02T02:28:30;32.70;;;18.40;;
47760;SDS011;33524;55.434;38.520;2024-03-02T02:30:58;56.37;;;31.92;;
47760;SDS011;33524;55.434;38.520;2024-03-02T02:33:28;56.50;;;35.50;;
47760;SDS011;33524;55.434;38.520;2024-03-02T02:35:56;62.13;;;35.13;;
47760;SDS011;33524;55.434;38.520;2024-03-02T02:38:24;61.80;;;34.88;;
47760;SDS011;33524;55.434;38.520;2024-03-02T02:40:53;39.88;;;23.80;;
47760;SDS011;33524;55.434;38.520;2024-03-02T02:43:21;31.58;;;18.05;;
47760;SDS011;33524;55.434;38.520;2024-03-02T02:45:49;28.10;;;16.85;;
47760;SDS011;33524;55.434;38.520;2024-03-02T02:48:17;51.08;;;30.50;;
47760;SDS011;33524;55.434;38.520;2024-03-02T02:50:46;58.85;;;30.75;;
47760;SDS011;33524;55.434;38.520;2024-03-02T02:53:14;47.47;;;28.58;;
47760;SDS011;33524;55.434;38.520;2024-03-02T02:55:42;38.65;;;21.80;;
47760;SDS011;33524;55.434;38.520;2024-03-02T02:58:11;45.15;;;25.05;;
47760;SDS011;33524;55.434;38.520;2024-03-02T03:00:39;52.97;;;29.75;;
47760;SDS011;33524;55.434;38.520;2024-03-02T03:03:08;51.83;;;28.70;;
47760;SDS011;33524;55.434;38.520;2024-03-02T03:05:36;47.78;;;26.92;;
47760;SDS011;33524;55.434;38.520;2024-03-02T03:08:04;61.55;;;32.33;;
47760;SDS011;33524;55.434;38.520;2024-03-02T03:10:33;57.47;;;32.67;;
47760;SDS011;33524;55.434;38.520;2024-03-02T03:13:01;59.85;;;35.58;;
47760;SDS011;33524;55.434;38.520;2024-03-02T03:15:30;55.63;;;31.25;;
47760;SDS011;33524;55.434;38.520;2024-03-02T03:17:59;63.87;;;34.50;;
47760;SDS011;33524;55.434;38.520;2024-03-02T03:20:27;63.40;;;34.03;;
47760;SDS011;33524;55.434;38.520;2024-03-02T03:22:56;58.97;;;35.58;;
47760;SDS011;33524;55.434;38.520;2024-03-02T03:25:24;65.97;;;36.35;;
47760;SDS011;33524;55.434;38.520;2024-03-02T03:27:53;62.47;;;32.03;;
47760;SDS011;33524;55.434;38.520;2024-03-02T03:30:22;63.35;;;32.88;;
47760;SDS011;33524;55.434;38.520;2024-03-02T03:32:51;58.17;;;33.53;;
47760;SDS011;33524;55.434;38.520;2024-03-02T03:35:19;65.05;;;34.80;;
47760;SDS011;33524;55.434;38.520;2024-03-02T03:37:47;67.68;;;37.78;;
47760;SDS011;33524;55.434;38.520;2024-03-02T03:40:15;63.03;;;36.33;;
47760;SDS011;33524;55.434;38.520;2024-03-02T03:42:44;67.32;;;37.35;;
47760;SDS011;33524;55.434;38.520;2024-03-02T03:45:12;68.00;;;37.53;;
47760;SDS011;33524;55.434;38.520;2024-03-02T03:47:40;71.82;;;39.03;;
47760;SDS011;33524;55.434;38.520;2024-03-02T03:50:09;70.18;;;41.50;;
47760;SDS011;33524;55.434;38.520;2024-03-02T03:52:37;68.07;;;35.70;;
47760;SDS011;33524;55.434;38.520;2024-03-02T03:55:05;59.72;;;32.08;;
47760;SDS011;33524;55.434;38.520;2024-03-02T03:57:34;69.60;;;38.80;;
47760;SDS011;33524;55.434;38.520;2024-03-02T04:00:03;67.35;;;38.58;;
47760;SDS011;33524;55.434;38.520;2024-03-02T04:02:38;74.28;;;38.80;;
47760;SDS011;33524;55.434;38.520;2024-03-02T04:05:07;63.55;;;37.75;;
47760;SDS011;33524;55.434;38.520;2024-03-02T04:07:39;66.25;;;35.13;;
47760;SDS011;33524;55.434;38.520;2024-03-02T04:10:11;63.85;;;35.75;;
47760;SDS011;33524;55.434;38.520;2024-03-02T04:12:40;62.83;;;36.45;;
47760;SDS011;33524;55.434;38.520;2024-03-02T04:15:08;78.78;;;39.47;;
47760;SDS011;33524;55.434;38.520;2024-03-02T04:17:36;66.12;;;37.17;;
47760;SDS011;33524;55.434;38.520;2024-03-02T04:20:05;66.62;;;38.17;;
47760;SDS011;33524;55.434;38.520;2024-03-02T04:22:34;77.32;;;41.30;;
47760;SDS011;33524;55.434;38.520;2024-03-02T04:25:03;64.82;;;35.95;;
47760;SDS011;33524;55.434;38.520;2024-03-02T04:27:32;72.32;;;37.17;;
47760;SDS011;33524;55.434;38.520;2024-03-02T04:30:01;70.40;;;37.45;;
47760;SDS011;33524;55.434;38.520;2024-03-02T04:32:30;68.03;;;38.03;;
47760;SDS011;33524;55.434;38.520;2024-03-02T04:34:58;64.00;;;36.22;;
47760;SDS011;33524;55.434;38.520;2024-03-02T04:37:28;69.43;;;36.28;;
47760;SDS011;33524;55.434;38.520;2024-03-02T04:39:57;69.30;;;39.97;;
47760;SDS011;33524;55.434;38.520;2024-03-02T04:42:25;72.57;;;38.83;;
47760;SDS011;33524;55.434;38.520;2024-03-02T04:44:53;82.80;;;40.67;;
47760;SDS011;33524;55.434;38.520;2024-03-02T04:47:21;83.40;;;44.55;;
47760;SDS011;33524;55.434;38.520;2024-03-02T04:49:50;81.80;;;40.45;;
47760;SDS011;33524;55.434;38.520;2024-03-02T04:52:18;68.18;;;38.22;;
47760;SDS011;33524;55.434;38.520;2024-03-02T04:54:46;74.22;;;41.67;;
47760;SDS011;33524;55.434;38.520;2024-03-02T04:57:33;80.00;;;41.53;;
47760;SDS011;33524;55.434;38.520;2024-03-02T05:00:01;69.80;;;38.22;;
47760;SDS011;33524;55.434;38.520;2024-03-02T05:05:02;76.47;;;39.97;;
47760;SDS011;33524;55.434;38.520;2024-03-02T05:07:31;66.95;;;40.45;;
47760;SDS011;33524;55.434;38.520;2024-03-02T05:09:59;79.90;;;42.88;;
47760;SDS011;33524;55.434;38.520;2024-03-02T05:12:29;73.07;;;40.33;;
47760;SDS011;33524;55.434;38.520;2024-03-02T05:15:03;77.50;;;39.60;;
47760;SDS011;33524;55.434;38.520;2024-03-02T05:17:32;77.78;;;38.55;;
47760;SDS011;33524;55.434;38.520;2024-03-02T05:20:00;69.75;;;35.22;;
47760;SDS011;33524;55.434;38.520;2024-03-02T05:22:29;69.80;;;36.95;;
47760;SDS011;33524;55.434;38.520;2024-03-02T05:24:57;69.57;;;37.80;;
47760;SDS011;33524;55.434;38.520;2024-03-02T05:27:29;66.75;;;36.47;;
47760;SDS011;33524;55.434;38.520;2024-03-02T05:29:59;63.45;;;38.15;;
47760;SDS011;33524;55.434;38.520;2024-03-02T05:32:30;58.20;;;32.97;;
47760;SDS011;33524;55.434;38.520;2024-03-02T05:34:58;67.55;;;34.78;;
47760;SDS011;33524;55.434;38.520;2024-03-02T05:37:26;64.28;;;35.58;;
47760;SDS011;33524;55.434;38.520;2024-03-02T05:39:54;55.97;;;32.75;;
47760;SDS011;33524;55.434;38.520;2024-03-02T05:42:23;60.92;;;33.08;;
47760;SDS011;33524;55.434;38.520;2024-03-02T05:44:51;63.00;;;31.87;;
47760;SDS011;33524;55.434;38.520;2024-03-02T05:47:19;64.80;;;30.77;;
47760;SDS011;33524;55.434;38.520;2024-03-02T05:49:47;62.40;;;36.08;;
47760;SDS011;33524;55.434;38.520;2024-03-02T05:52:15;56.47;;;30.90;;
47760;SDS011;33524;55.434;38.520;2024-03-02T05:54:43;52.92;;;30.33;;
47760;SDS011;33524;55.434;38.520;2024-03-02T05:57:12;46.70;;;28.27;;
47760;SDS011;33524;55.434;38.520;2024-03-02T05:59:59;47.00;;;24.45;;
47760;SDS011;33524;55.434;38.520;2024-03-02T06:02:28;51.58;;;28.83;;
47760;SDS011;33524;55.434;38.520;2024-03-02T06:04:56;59.67;;;30.85;;
47760;SDS011;33524;55.434;38.520;2024-03-02T06:07:24;60.97;;;29.30;;
47760;SDS011;33524;55.434;38.520;2024-03-02T06:09:52;58.58;;;31.42;;
47760;SDS011;33524;55.434;38.520;2024-03-02T06:12:21;53.35;;;28.98;;
47760;SDS011;33524;55.434;38.520;2024-03-02T06:14:49;51.60;;;26.33;;
47760;SDS011;33524;55.434;38.520;2024-03-02T06:17:17;54.75;;;31.50;;
47760;SDS011;33524;55.434;38.520;2024-03-02T06:19:46;53.17;;;30.52;;
47760;SDS011;33524;55.434;38.520;2024-03-02T06:22:15;59.33;;;30.90;;
47760;SDS011;33524;55.434;38.520;2024-03-02T06:24:43;51.92;;;29.48;;
47760;SDS011;33524;55.434;38.520;2024-03-02T06:27:12;54.85;;;30.65;;
47760;SDS011;33524;55.434;38.520;2024-03-02T06:29:39;53.78;;;29.95;;
47760;SDS011;33524;55.434;38.520;2024-03-02T06:32:08;54.40;;;28.73;;
47760;SDS011;33524;55.434;38.520;2024-03-02T06:34:36;48.53;;;28.30;;
47760;SDS011;33524;55.434;38.520;2024-03-02T06:37:04;54.33;;;30.77;;
47760;SDS011;33524;55.434;38.520;2024-03-02T06:39:32;60.85;;;32.20;;
47760;SDS011;33524;55.434;38.520;2024-03-02T06:42:02;54.83;;;30.12;;
47760;SDS011;33524;55.434;38.520;2024-03-02T06:44:30;53.60;;;31.05;;
47760;SDS011;33524;55.434;38.520;2024-03-02T06:46:58;56.35;;;30.55;;
47760;SDS011;33524;55.434;38.520;2024-03-02T06:49:27;54.92;;;31.92;;
47760;SDS011;33524;55.434;38.520;2024-03-02T06:51:55;50.97;;;28.38;;
47760;SDS011;33524;55.434;38.520;2024-03-02T06:54:24;52.28;;;27.20;;
47760;SDS011;33524;55.434;38.520;2024-03-02T06:56:52;49.00;;;29.33;;
47760;SDS011;33524;55.434;38.520;2024-03-02T06:59:20;46.33;;;27.48;;
47760;SDS011;33524;55.434;38.520;2024-03-02T07:01:48;42.78;;;27.23;;
47760;SDS011;33524;55.434;38.520;2024-03-02T07:04:16;51.83;;;29.20;;
47760;SDS011;33524;55.434;38.520;2024-03-02T07:06:44;46.20;;;28.23;;
47760;SDS011;33524;55.434;38.520;2024-03-02T07:09:12;41.72;;;25.58;;
47760;SDS011;33524;55.434;38.520;2024-03-02T07:11:40;49.08;;;28.00;;
47760;SDS011;33524;55.434;38.520;2024-03-02T07:14:08;48.25;;;29.65;;
47760;SDS011;33524;55.434;38.520;2024-03-02T07:16:37;47.22;;;27.10;;
47760;SDS011;33524;55.434;38.520;2024-03-02T07:19:07;55.42;;;27.13;;
47760;SDS011;33524;55.434;38.520;2024-03-02T07:21:36;47.58;;;26.05;;
47760;SDS011;33524;55.434;38.520;2024-03-02T07:24:05;45.75;;;28.02;;
47760;SDS011;33524;55.434;38.520;2024-03-02T07:26:34;45.80;;;27.83;;
47760;SDS011;33524;55.434;38.520;2024-03-02T07:29:05;40.70;;;25.27;;
47760;SDS011;33524;55.434;38.520;2024-03-02T07:31:33;43.08;;;23.98;;
47760;SDS011;33524;55.434;38.520;2024-03-02T07:34:01;43.78;;;23.55;;
47760;SDS011;33524;55.434;38.520;2024-03-02T07:36:30;45.15;;;26.23;;
47760;SDS011;33524;55.434;38.520;2024-03-02T07:38:59;47.97;;;25.33;;
47760;SDS011;33524;55.434;38.520;2024-03-02T07:41:27;39.67;;;23.05;;
47760;SDS011;33524;55.434;38.520;2024-03-02T07:43:55;40.60;;;24.48;;
47760;SDS011;33524;55.434;38.520;2024-03-02T07:46:24;43.33;;;23.17;;
47760;SDS011;33524;55.434;38.520;2024-03-02T07:48:53;41.90;;;23.77;;
47760;SDS011;33524;55.434;38.520;2024-03-02T07:51:21;45.55;;;23.33;;
47760;SDS011;33524;55.434;38.520;2024-03-02T07:53:49;37.40;;;21.00;;
47760;SDS011;33524;55.434;38.520;2024-03-02T07:56:18;44.63;;;23.35;;
47760;SDS011;33524;55.434;38.520;2024-03-02T07:58:49;43.83;;;25.83;;
47760;SDS011;33524;55.434;38.520;2024-03-02T08:01:18;41.75;;;24.95;;
47760;SDS011;33524;55.434;38.520;2024-03-02T08:03:48;41.80;;;23.90;;
47760;SDS011;33524;55.434;38.520;2024-03-02T08:06:17;40.20;;;23.08;;
47760;SDS011;33524;55.434;38.520;2024-03-02T08:08:48;40.25;;;22.95;;
47760;SDS011;33524;55.434;38.520;2024-03-02T08:11:16;41.00;;;24.08;;
47760;SDS011;33524;55.434;38.520;2024-03-02T08:13:45;42.67;;;24.55;;
47760;SDS011;33524;55.434;38.520;2024-03-02T08:16:14;49.30;;;24.35;;
47760;SDS011;33524;55.434;38.520;2024-03-02T08:18:43;55.35;;;27.92;;
47760;SDS011;33524;55.434;38.520;2024-03-02T08:21:12;48.85;;;27.73;;
47760;SDS011;33524;55.434;38.520;2024-03-02T08:23:42;51.80;;;28.87;;
47760;SDS011;33524;55.434;38.520;2024-03-02T08:26:11;45.55;;;26.12;;
47760;SDS011;33524;55.434;38.520;2024-03-02T08:28:39;48.97;;;26.42;;
47760;SDS011;33524;55.434;38.520;2024-03-02T09:24:34;37.28;;;21.73;;
47760;SDS011;33524;55.434;38.520;2024-03-02T09:27:21;40.22;;;20.05;;
47760;SDS011;33524;55.434;38.520;2024-03-02T09:29:50;34.83;;;20.35;;
47760;SDS011;33524;55.434;38.520;2024-03-02T09:32:19;34.00;;;21.35;;
47760;SDS011;33524;55.434;38.520;2024-03-02T09:34:48;34.72;;;20.98;;
47760;SDS011;33524;55.434;38.520;2024-03-02T09:37:16;34.70;;;20.83;;
47760;SDS011;33524;55.434;38.520;2024-03-02T09:39:44;31.60;;;17.62;;
47760;SDS011;33524;55.434;38.520;2024-03-02T09:42:13;28.87;;;18.42;;
47760;SDS011;33524;55.434;38.520;2024-03-02T09:44:42;30.35;;;19.55;;
47760;SDS011;33524;55.434;38.520;2024-03-02T09:47:11;28.23;;;16.60;;
47760;SDS011;33524;55.434;38.520;2024-03-02T09:49:40;33.38;;;17.80;;
47760;SDS011;33524;55.434;38.520;2024-03-02T09:52:08;29.65;;;17.67;;
47760;SDS011;33524;55.434;38.520;2024-03-02T09:54:37;28.08;;;17.45;;
47760;SDS011;33524;55.434;38.520;2024-03-02T09:57:07;26.73;;;17.77;;
47760;SDS011;33524;55.434;38.520;2024-03-02T09:59:37;27.02;;;17.20;;
47760;SDS011;33524;55.434;38.520;2024-03-02T10:02:06;30.77;;;17.95;;
47760;SDS011;33524;55.434;38.520;2024-03-02T10:04:38;30.85;;;18.27;;
47760;SDS011;33524;55.434;38.520;2024-03-02T10:09:50;33.58;;;18.65;;
47760;SDS011;33524;55.434;38.520;2024-03-02T10:12:19;29.87;;;17.02;;
47760;SDS011;33524;55.434;38.520;2024-03-02T10:14:48;27.30;;;17.90;;
47760;SDS011;33524;55.434;38.520;2024-03-02T10:17:17;28.45;;;17.85;;
47760;SDS011;33524;55.434;38.520;2024-03-02T10:19:46;31.33;;;17.45;;
47760;SDS011;33524;55.434;38.520;2024-03-02T10:22:15;32.92;;;19.85;;
47760;SDS011;33524;55.434;38.520;2024-03-02T10:24:43;27.40;;;17.40;;
47760;SDS011;33524;55.434;38.520;2024-03-02T10:27:17;30.48;;;17.50;;
47760;SDS011;33524;55.434;38.520;2024-03-02T10:29:51;31.37;;;17.70;;
47760;SDS011;33524;55.434;38.520;2024-03-02T10:32:19;29.80;;;17.00;;
47760;SDS011;33524;55.434;38.520;2024-03-02T10:34:50;31.67;;;18.58;;
47760;SDS011;33524;55.434;38.520;2024-03-02T10:37:19;28.83;;;16.30;;
47760;SDS011;33524;55.434;38.520;2024-03-02T10:39:49;28.38;;;15.52;;
47760;SDS011;33524;55.434;38.520;2024-03-02T10:42:22;28.80;;;16.75;;
47760;SDS011;33524;55.434;38.520;2024-03-02T10:44:51;26.60;;;15.80;;
47760;SDS011;33524;55.434;38.520;2024-03-02T10:47:20;31.27;;;17.40;;
47760;SDS011;33524;55.434;38.520;2024-03-02T10:49:50;29.50;;;18.67;;
47760;SDS011;33524;55.434;38.520;2024-03-02T10:52:20;27.05;;;16.62;;
47760;SDS011;33524;55.434;38.520;2024-03-02T10:54:51;29.30;;;17.77;;
47760;SDS011;33524;55.434;38.520;2024-03-02T10:57:21;27.75;;;16.08;;
47760;SDS011;33524;55.434;38.520;2024-03-02T10:59:56;23.87;;;15.85;;
47760;SDS011;33524;55.434;38.520;2024-03-02T11:02:30;23.98;;;14.82;;
47760;SDS011;33524;55.434;38.520;2024-03-02T11:05:00;29.37;;;16.92;;
47760;SDS011;33524;55.434;38.520;2024-03-02T11:07:35;27.80;;;13.40;;
47760;SDS011;33524;55.434;38.520;2024-03-02T11:10:05;25.12;;;15.52;;
47760;SDS011;33524;55.434;38.520;2024-03-02T11:12:38;27.52;;;15.43;;
47760;SDS011;33524;55.434;38.520;2024-03-02T11:15:11;29.85;;;16.45;;
47760;SDS011;33524;55.434;38.520;2024-03-02T11:17:47;27.45;;;14.77;;
47760;SDS011;33524;55.434;38.520;2024-03-02T11:20:17;30.00;;;14.65;;
47760;SDS011;33524;55.434;38.520;2024-03-02T11:22:46;28.52;;;16.62;;
47760;SDS011;33524;55.434;38.520;2024-03-02T11:25:27;27.67;;;16.73;;
47760;SDS011;33524;55.434;38.520;2024-03-02T11:33:04;26.70;;;14.75;;
47760;SDS011;33524;55.434;38.520;2024-03-02T11:35:42;31.42;;;16.52;;
47760;SDS011;33524;55.434;38.520;2024-03-02T11:38:20;27.45;;;15.73;;
47760;SDS011;33524;55.434;38.520;2024-03-02T11:40:49;27.40;;;15.05;;
47760;SDS011;33524;55.434;38.520;2024-03-02T11:43:20;34.92;;;16.27;;
47760;SDS011;33524;55.434;38.520;2024-03-02T11:45:54;31.70;;;16.35;;
47760;SDS011;33524;55.434;38.520;2024-03-02T11:48:25;27.98;;;15.38;;
47760;SDS011;33524;55.434;38.520;2024-03-02T11:50:57;32.65;;;15.35;;
47760;SDS011;33524;55.434;38.520;2024-03-02T11:53:27;32.38;;;16.25;;
47760;SDS011;33524;55.434;38.520;2024-03-02T11:56:00;31.70;;;15.90;;
47760;SDS011;33524;55.434;38.520;2024-03-02T11:58:29;27.62;;;13.73;;
47760;SDS011;33524;55.434;38.520;2024-03-02T12:00:57;30.23;;;16.08;;
47760;SDS011;33524;55.434;38.520;2024-03-02T12:03:26;23.62;;;13.95;;
47760;SDS011;33524;55.434;38.520;2024-03-02T12:09:16;28.42;;;15.73;;
47760;SDS011;33524;55.434;38.520;2024-03-02T12:11:45;24.87;;;16.43;;
47760;SDS011;33524;55.434;38.520;2024-03-02T12:14:13;34.83;;;18.35;;
47760;SDS011;33524;55.434;38.520;2024-03-02T12:16:44;32.50;;;18.10;;
47760;SDS011;33524;55.434;38.520;2024-03-02T12:19:14;33.30;;;18.20;;
47760;SDS011;33524;55.434;38.520;2024-03-02T12:21:45;34.10;;;18.17;;
47760;SDS011;33524;55.434;38.520;2024-03-02T12:24:15;35.15;;;17.58;;
47760;SDS011;33524;55.434;38.520;2024-03-02T12:26:43;28.73;;;16.87;;
47760;SDS011;33524;55.434;38.520;2024-03-02T12:31:54;35.20;;;17.80;;
47760;SDS011;33524;55.434;38.520;2024-03-02T12:34:23;28.70;;;15.27;;
47760;SDS011;33524;55.434;38.520;2024-03-02T12:36:52;29.27;;;13.77;;
47760;SDS011;33524;55.434;38.520;2024-03-02T12:39:21;23.92;;;13.23;;
47760;SDS011;33524;55.434;38.520;2024-03-02T12:41:51;25.20;;;13.07;;
47760;SDS011;33524;55.434;38.520;2024-03-02T12:44:21;24.40;;;12.02;;
47760;SDS011;33524;55.434;38.520;2024-03-02T12:46:49;20.65;;;13.10;;
47760;SDS011;33524;55.434;38.520;2024-03-02T12:49:22;27.33;;;13.77;;
47760;SDS011;33524;55.434;38.520;2024-03-02T12:51:50;26.33;;;12.30;;
47760;SDS011;33524;55.434;38.520;2024-03-02T12:54:21;21.87;;;12.75;;
47760;SDS011;33524;55.434;38.520;2024-03-02T12:56:50;23.20;;;12.45;;
47760;SDS011;33524;55.434;38.520;2024-03-02T12:59:18;32.60;;;18.65;;
47760;SDS011;33524;55.434;38.520;2024-03-02T13:04:24;29.67;;;17.70;;
47760;SDS011;33524;55.434;38.520;2024-03-02T13:06:55;29.50;;;18.10;;
47760;SDS011;33524;55.434;38.520;2024-03-02T13:09:27;30.37;;;17.58;;
47760;SDS011;33524;55.434;38.520;2024-03-02T13:11:55;36.40;;;19.10;;
47760;SDS011;33524;55.434;38.520;2024-03-02T13:14:24;28.58;;;20.98;;
47760;SDS011;33524;55.434;38.520;2024-03-02T13:16:54;38.92;;;22.58;;
47760;SDS011;33524;55.434;38.520;2024-03-02T13:19:25;37.15;;;21.48;;
47760;SDS011;33524;55.434;38.520;2024-03-02T13:21:56;44.10;;;23.80;;
47760;SDS011;33524;55.434;38.520;2024-03-02T13:24:25;39.80;;;22.67;;
47760;SDS011;33524;55.434;38.520;2024-03-02T13:26:56;35.85;;;22.48;;
47760;SDS011;33524;55.434;38.520;2024-03-02T13:29:25;37.03;;;22.05;;
47760;SDS011;33524;55.434;38.520;2024-03-02T13:31:53;42.03;;;24.98;;
47760;SDS011;33524;55.434;38.520;2024-03-02T13:34:23;45.42;;;26.08;;
47760;SDS011;33524;55.434;38.520;2024-03-02T13:36:51;45.63;;;27.08;;
47760;SDS011;33524;55.434;38.520;2024-03-02T13:39:19;44.38;;;27.00;;
47760;SDS011;33524;55.434;38.520;2024-03-02T13:41:47;46.53;;;27.42;;
47760;SDS011;33524;55.434;38.520;2024-03-02T13:44:20;44.30;;;27.92;;
47760;SDS011;33524;55.434;38.520;2024-03-02T13:46:49;39.30;;;25.30;;
47760;SDS011;33524;55.434;38.520;2024-03-02T13:49:19;42.00;;;23.85;;
47760;SDS011;33524;55.434;38.520;2024-03-02T13:51:47;37.75;;;24.48;;
47760;SDS011;33524;55.434;38.520;2024-03-02T13:54:16;32.75;;;20.73;;
47760;SDS011;33524;55.434;38.520;2024-03-02T13:56:44;33.28;;;19.95;;
47760;SDS011;33524;55.434;38.520;2024-03-02T13:59:14;35.15;;;19.67;;
47760;SDS011;33524;55.434;38.520;2024-03-02T14:01:42;26.95;;;16.67;;
47760;SDS011;33524;55.434;38.520;2024-03-02T14:04:11;24.48;;;15.98;;
47760;SDS011;33524;55.434;38.520;2024-03-02T14:06:40;25.58;;;17.48;;
47760;SDS011;33524;55.434;38.520;2024-03-02T14:09:11;25.88;;;16.12;;
47760;SDS011;33524;55.434;38.520;2024-03-02T14:11:38;21.08;;;14.60;;
47760;SDS011;33524;55.434;38.520;2024-03-02T14:14:07;30.90;;;19.05;;
47760;SDS011;33524;55.434;38.520;2024-03-02T14:16:35;31.42;;;17.60;;
47760;SDS011;33524;55.434;38.520;2024-03-02T14:19:03;25.83;;;15.43;;
47760;SDS011;33524;55.434;38.520;2024-03-02T14:21:35;25.55;;;16.62;;
47760;SDS011;33524;55.434;38.520;2024-03-02T14:24:06;26.27;;;18.33;;
47760;SDS011;33524;55.434;38.520;2024-03-02T14:26:38;25.20;;;16.62;;
47760;SDS011;33524;55.434;38.520;2024-03-02T14:29:06;27.92;;;17.98;;
47760;SDS011;33524;55.434;38.520;2024-03-02T14:31:34;26.83;;;17.10;;
47760;SDS011;33524;55.434;38.520;2024-03-02T14:34:02;24.75;;;16.58;;
47760;SDS011;33524;55.434;38.520;2024-03-02T14:36:30;23.00;;;16.45;;
47760;SDS011;33524;55.434;38.520;2024-03-02T14:38:58;29.12;;;19.70;;
47760;SDS011;33524;55.434;38.520;2024-03-02T14:41:27;31.40;;;20.30;;
47760;SDS011;33524;55.434;38.520;2024-03-02T14:43:55;37.75;;;21.23;;
47760;SDS011;33524;55.434;38.520;2024-03-02T14:46:23;24.00;;;16.40;;
47760;SDS011;33524;55.434;38.520;2024-03-02T14:48:53;23.52;;;15.70;;
47760;SDS011;33524;55.434;38.520;2024-03-02T14:51:21;24.65;;;16.75;;
47760;SDS011;33524;55.434;38.520;2024-03-02T14:53:49;26.25;;;17.25;;
47760;SDS011;33524;55.434;38.520;2024-03-02T14:56:18;24.85;;;16.12;;
47760;SDS011;33524;55.434;38.520;2024-03-02T14:58:46;21.85;;;15.73;;
47760;SDS011;33524;55.434;38.520;2024-03-02T15:01:14;23.73;;;16.12;;
47760;SDS011;33524;55.434;38.520;2024-03-02T15:03:45;25.40;;;16.48;;
47760;SDS011;33524;55.434;38.520;2024-03-02T15:06:13;29.37;;;17.30;;
47760;SDS011;33524;55.434;38.520;2024-03-02T15:09:00;25.42;;;15.23;;
47760;SDS011;33524;55.434;38.520;2024-03-02T15:11:29;19.12;;;14.85;;
47760;SDS011;33524;55.434;38.520;2024-03-02T15:13:57;22.55;;;14.75;;
47760;SDS011;33524;55.434;38.520;2024-03-02T15:16:26;29.48;;;16.95;;
47760;SDS011;33524;55.434;38.520;2024-03-02T15:18:56;25.67;;;17.80;;
47760;SDS011;33524;55.434;38.520;2024-03-02T15:21:24;21.87;;;14.82;;
47760;SDS011;33524;55.434;38.520;2024-03-02T15:23:52;23.02;;;15.93;;
47760;SDS011;33524;55.434;38.520;2024-03-02T15:26:21;23.80;;;15.77;;
47760;SDS011;33524;55.434;38.520;2024-03-02T15:28:49;21.60;;;14.20;;
47760;SDS011;33524;55.434;38.520;2024-03-02T15:31:17;25.90;;;16.02;;
47760;SDS011;33524;55.434;38.520;2024-03-02T15:33:45;22.83;;;15.18;;
47760;SDS011;33524;55.434;38.520;2024-03-02T15:36:13;23.02;;;16.42;;
47760;SDS011;33524;55.434;38.520;2024-03-02T15:38:42;18.62;;;13.38;;